sensor_id;sensor_type;location;lat;lon;timestamp;temperature;humidity
64951;DHT22;51482;47.014;7.652;2023-02-28T00:00:24;-0.30;99.90
64951;DHT22;51482;47.014;7.652;2023-02-28T00:02:50;0.30;99.90
64951;DHT22;51482;47.014;7.652;2023-02-28T00:05:19;-0.40;99.90
64951;DHT22;51482;47.014;7.652;2023-02-28T00:07:46;0.10;99.90
64951;DHT22;51482;47.014;7.652;2023-02-28T00:10:14;-0.30;99.90
64951;DHT22;51482;47.014;7.652;2023-02-28T00:12:40;0.40;99.90
64951;DHT22;51482;47.014;7.652;2023-02-28T00:15:10;0.50;99.90
64951;DHT22;51482;47.014;7.652;2023-02-28T00:17:37;-0.20;99.90
64951;DHT22;51482;47.014;7.652;2023-02-28T00:20:04;0.40;99.90
64951;DHT22;51482;47.014;7.652;2023-02-28T00:22:33;-0.30;99.90
64951;DHT22;51482;47.014;7.652;2023-02-28T00:24:59;-0.10;99.90
64951;DHT22;51482;47.014;7.652;2023-02-28T00:27:25;-0.30;99.90
64951;DHT22;51482;47.014;7.652;2023-02-28T00:29:50;-0.20;99.90
64951;DHT22;51482;47.014;7.652;2023-02-28T00:32:16;-0.90;99.90
64951;DHT22;51482;47.014;7.652;2023-02-28T00:34:41;-0.20;99.90
64951;DHT22;51482;47.014;7.652;2023-02-28T00:37:08;-0.10;99.90
64951;DHT22;51482;47.014;7.652;2023-02-28T00:39:36;0.50;99.90
64951;DHT22;51482;47.014;7.652;2023-02-28T00:42:02;-0.50;99.90
64951;DHT22;51482;47.014;7.652;2023-02-28T00:44:29;-0.10;99.90
64951;DHT22;51482;47.014;7.652;2023-02-28T00:46:54;0.50;99.90
64951;DHT22;51482;47.014;7.652;2023-02-28T00:49:21;-0.10;99.90
64951;DHT22;51482;47.014;7.652;2023-02-28T00:51:47;-0.30;99.90
64951;DHT22;51482;47.014;7.652;2023-02-28T00:54:13;0.00;99.90
64951;DHT22;51482;47.014;7.652;2023-02-28T00:56:38;0.50;99.90
64951;DHT22;51482;47.014;7.652;2023-02-28T00:59:04;-0.90;99.90
64951;DHT22;51482;47.014;7.652;2023-02-28T01:01:30;0.50;99.90
64951;DHT22;51482;47.014;7.652;2023-02-28T01:03:55;0.60;99.90
64951;DHT22;51482;47.014;7.652;2023-02-28T01:06:21;0.60;99.90
64951;DHT22;51482;47.014;7.652;2023-02-28T01:08:46;0.40;99.90
64951;DHT22;51482;47.014;7.652;2023-02-28T01:11:14;0.60;99.90
64951;DHT22;51482;47.014;7.652;2023-02-28T01:13:40;0.50;99.90
64951;DHT22;51482;47.014;7.652;2023-02-28T01:16:06;0.50;99.90
64951;DHT22;51482;47.014;7.652;2023-02-28T01:18:32;-0.10;99.90
64951;DHT22;51482;47.014;7.652;2023-02-28T01:20:58;-0.20;99.90
64951;DHT22;51482;47.014;7.652;2023-02-28T01:23:24;0.40;99.90
64951;DHT22;51482;47.014;7.652;2023-02-28T01:25:51;-0.10;99.90
64951;DHT22;51482;47.014;7.652;2023-02-28T01:28:16;0.40;99.90
64951;DHT22;51482;47.014;7.652;2023-02-28T01:30:42;0.80;99.90
64951;DHT22;51482;47.014;7.652;2023-02-28T01:33:07;0.50;99.90
64951;DHT22;51482;47.014;7.652;2023-02-28T01:35:34;0.70;99.90
64951;DHT22;51482;47.014;7.652;2023-02-28T01:38:00;-0.20;99.90
64951;DHT22;51482;47.014;7.652;2023-02-28T01:40:26;0.30;99.90
64951;DHT22;51482;47.014;7.652;2023-02-28T01:42:52;0.40;99.90
64951;DHT22;51482;47.014;7.652;2023-02-28T01:45:27;0.30;99.90
64951;DHT22;51482;47.014;7.652;2023-02-28T01:47:57;0.50;99.90
64951;DHT22;51482;47.014;7.652;2023-02-28T01:50:25;0.40;99.90
64951;DHT22;51482;47.014;7.652;2023-02-28T01:52:55;0.60;99.90
64951;DHT22;51482;47.014;7.652;2023-02-28T01:55:23;0.10;99.90
64951;DHT22;51482;47.014;7.652;2023-02-28T01:57:55;0.00;99.90
64951;DHT22;51482;47.014;7.652;2023-02-28T02:00:24;-0.20;99.90
64951;DHT22;51482;47.014;7.652;2023-02-28T02:02:55;-0.10;99.90
64951;DHT22;51482;47.014;7.652;2023-02-28T02:05:27;0.60;99.90
64951;DHT22;51482;47.014;7.652;2023-02-28T02:08:00;-0.10;99.90
64951;DHT22;51482;47.014;7.652;2023-02-28T02:10:40;0.10;99.90
64951;DHT22;51482;47.014;7.652;2023-02-28T02:18:38;0.10;99.90
64951;DHT22;51482;47.014;7.652;2023-02-28T02:38:53;0.10;99.90
64951;DHT22;51482;47.014;7.652;2023-02-28T02:42:03;0.30;99.90
64951;DHT22;51482;47.014;7.652;2023-02-28T02:44:46;1.00;99.90
64951;DHT22;51482;47.014;7.652;2023-02-28T02:47:19;0.10;99.90
64951;DHT22;51482;47.014;7.652;2023-02-28T02:49:50;0.60;99.90
64951;DHT22;51482;47.014;7.652;2023-02-28T02:52:20;0.40;99.90
64951;DHT22;51482;47.014;7.652;2023-02-28T02:54:48;0.00;99.90
64951;DHT22;51482;47.014;7.652;2023-02-28T02:57:23;0.30;99.90
64951;DHT22;51482;47.014;7.652;2023-02-28T02:59:51;0.70;99.90
64951;DHT22;51482;47.014;7.652;2023-02-28T03:02:20;0.70;99.90
64951;DHT22;51482;47.014;7.652;2023-02-28T03:04:51;0.00;99.90
64951;DHT22;51482;47.014;7.652;2023-02-28T03:07:17;0.60;99.90
64951;DHT22;51482;47.014;7.652;2023-02-28T03:09:54;0.10;99.90
64951;DHT22;51482;47.014;7.652;2023-02-28T03:12:20;0.10;99.90
64951;DHT22;51482;47.014;7.652;2023-02-28T03:14:56;0.60;99.90
64951;DHT22;51482;47.014;7.652;2023-02-28T03:17:45;0.60;99.90
64951;DHT22;51482;47.014;7.652;2023-02-28T03:20:24;0.00;99.90
64951;DHT22;51482;47.014;7.652;2023-02-28T03:23:37;0.10;99.90
64951;DHT22;51482;47.014;7.652;2023-02-28T03:26:16;0.10;99.90
64951;DHT22;51482;47.014;7.652;2023-02-28T03:29:06;0.20;99.90
64951;DHT22;51482;47.014;7.652;2023-02-28T03:31:40;0.30;99.90
64951;DHT22;51482;47.014;7.652;2023-02-28T03:34:10;0.80;99.90
64951;DHT22;51482;47.014;7.652;2023-02-28T03:36:44;0.30;99.90
64951;DHT22;51482;47.014;7.652;2023-02-28T03:39:27;0.50;99.90
64951;DHT22;51482;47.014;7.652;2023-02-28T03:41:58;0.00;99.90
64951;DHT22;51482;47.014;7.652;2023-02-28T03:44:30;0.60;99.90
64951;DHT22;51482;47.014;7.652;2023-02-28T03:47:03;0.50;99.90
64951;DHT22;51482;47.014;7.652;2023-02-28T03:49:42;0.00;99.90
64951;DHT22;51482;47.014;7.652;2023-02-28T03:52:11;0.00;99.90
64951;DHT22;51482;47.014;7.652;2023-02-28T03:54:43;0.00;99.90
64951;DHT22;51482;47.014;7.652;2023-02-28T03:57:20;-0.10;99.90
64951;DHT22;51482;47.014;7.652;2023-02-28T03:59:52;0.40;99.90
64951;DHT22;51482;47.014;7.652;2023-02-28T04:02:18;0.50;99.90
64951;DHT22;51482;47.014;7.652;2023-02-28T04:04:44;0.40;99.90
64951;DHT22;51482;47.014;7.652;2023-02-28T04:07:14;0.50;99.90
64951;DHT22;51482;47.014;7.652;2023-02-28T04:09:39;0.50;99.90
64951;DHT22;51482;47.014;7.652;2023-02-28T04:12:05;0.50;99.90
64951;DHT22;51482;47.014;7.652;2023-02-28T04:14:31;-0.20;99.90
64951;DHT22;51482;47.014;7.652;2023-02-28T04:16:56;-0.20;99.90
64951;DHT22;51482;47.014;7.652;2023-02-28T04:19:22;0.00;99.90
64951;DHT22;51482;47.014;7.652;2023-02-28T04:21:50;0.50;99.90
64951;DHT22;51482;47.014;7.652;2023-02-28T04:24:18;0.40;99.90
64951;DHT22;51482;47.014;7.652;2023-02-28T04:26:46;0.30;99.90
64951;DHT22;51482;47.014;7.652;2023-02-28T04:29:15;0.30;99.90
64951;DHT22;51482;47.014;7.652;2023-02-28T04:31:43;0.50;99.90
64951;DHT22;51482;47.014;7.652;2023-02-28T04:34:08;0.40;99.90
64951;DHT22;51482;47.014;7.652;2023-02-28T04:36:34;0.40;99.90
64951;DHT22;51482;47.014;7.652;2023-02-28T04:39:00;0.50;99.90
64951;DHT22;51482;47.014;7.652;2023-02-28T04:41:25;-0.80;99.90
64951;DHT22;51482;47.014;7.652;2023-02-28T04:43:51;-0.30;99.90
64951;DHT22;51482;47.014;7.652;2023-02-28T04:46:18;0.30;99.90
64951;DHT22;51482;47.014;7.652;2023-02-28T04:48:44;0.30;99.90
64951;DHT22;51482;47.014;7.652;2023-02-28T04:51:12;0.30;99.90
64951;DHT22;51482;47.014;7.652;2023-02-28T04:53:39;0.60;99.90
64951;DHT22;51482;47.014;7.652;2023-02-28T04:56:06;0.30;99.90
64951;DHT22;51482;47.014;7.652;2023-02-28T04:58:32;-0.20;99.90
64951;DHT22;51482;47.014;7.652;2023-02-28T05:01:07;0.20;99.90
64951;DHT22;51482;47.014;7.652;2023-02-28T05:03:41;0.40;99.90
64951;DHT22;51482;47.014;7.652;2023-02-28T05:06:08;0.40;99.90
64951;DHT22;51482;47.014;7.652;2023-02-28T05:08:34;0.50;99.90
64951;DHT22;51482;47.014;7.652;2023-02-28T05:11:00;0.40;99.90
64951;DHT22;51482;47.014;7.652;2023-02-28T05:13:28;-0.20;99.90
64951;DHT22;51482;47.014;7.652;2023-02-28T05:15:54;0.30;99.90
64951;DHT22;51482;47.014;7.652;2023-02-28T05:18:20;0.20;99.90
64951;DHT22;51482;47.014;7.652;2023-02-28T05:20:46;0.40;99.90
64951;DHT22;51482;47.014;7.652;2023-02-28T05:23:13;0.30;99.90
64951;DHT22;51482;47.014;7.652;2023-02-28T05:25:39;0.00;99.90
64951;DHT22;51482;47.014;7.652;2023-02-28T05:28:05;-0.30;99.90
64951;DHT22;51482;47.014;7.652;2023-02-28T05:30:31;0.60;99.90
64951;DHT22;51482;47.014;7.652;2023-02-28T05:32:57;0.10;99.90
64951;DHT22;51482;47.014;7.652;2023-02-28T05:35:23;0.50;99.90
64951;DHT22;51482;47.014;7.652;2023-02-28T05:37:49;0.10;99.90
64951;DHT22;51482;47.014;7.652;2023-02-28T05:40:14;0.40;99.90
64951;DHT22;51482;47.014;7.652;2023-02-28T05:42:40;-0.20;99.90
64951;DHT22;51482;47.014;7.652;2023-02-28T05:45:06;0.40;99.90
64951;DHT22;51482;47.014;7.652;2023-02-28T05:47:32;-0.20;99.90
64951;DHT22;51482;47.014;7.652;2023-02-28T05:49:58;-0.20;99.90
64951;DHT22;51482;47.014;7.652;2023-02-28T05:52:24;-0.80;99.90
64951;DHT22;51482;47.014;7.652;2023-02-28T05:54:49;0.60;99.90
64951;DHT22;51482;47.014;7.652;2023-02-28T05:57:15;0.40;99.90
64951;DHT22;51482;47.014;7.652;2023-02-28T05:59:41;-0.20;99.90
64951;DHT22;51482;47.014;7.652;2023-02-28T06:02:12;-0.30;99.90
64951;DHT22;51482;47.014;7.652;2023-02-28T06:04:37;0.20;99.90
64951;DHT22;51482;47.014;7.652;2023-02-28T06:07:03;0.30;99.90
64951;DHT22;51482;47.014;7.652;2023-02-28T06:09:29;0.30;99.90
64951;DHT22;51482;47.014;7.652;2023-02-28T06:11:57;-0.30;99.90
64951;DHT22;51482;47.014;7.652;2023-02-28T06:14:22;-0.20;99.90
64951;DHT22;51482;47.014;7.652;2023-02-28T06:16:48;0.20;99.90
64951;DHT22;51482;47.014;7.652;2023-02-28T06:19:13;-0.20;99.90
64951;DHT22;51482;47.014;7.652;2023-02-28T06:21:40;-0.40;99.90
64951;DHT22;51482;47.014;7.652;2023-02-28T06:24:06;-0.30;99.90
64951;DHT22;51482;47.014;7.652;2023-02-28T06:26:32;-0.30;99.90
64951;DHT22;51482;47.014;7.652;2023-02-28T06:28:57;0.20;99.90
64951;DHT22;51482;47.014;7.652;2023-02-28T06:31:23;-0.80;99.90
64951;DHT22;51482;47.014;7.652;2023-02-28T06:33:51;-0.20;99.90
64951;DHT22;51482;47.014;7.652;2023-02-28T06:36:17;0.20;99.90
64951;DHT22;51482;47.014;7.652;2023-02-28T06:38:43;-0.30;99.90
64951;DHT22;51482;47.014;7.652;2023-02-28T06:41:10;0.30;99.90
64951;DHT22;51482;47.014;7.652;2023-02-28T06:43:41;-0.20;99.90
64951;DHT22;51482;47.014;7.652;2023-02-28T06:46:08;0.30;99.90
64951;DHT22;51482;47.014;7.652;2023-02-28T06:48:35;-0.30;99.90
64951;DHT22;51482;47.014;7.652;2023-02-28T06:51:06;0.30;99.90
64951;DHT22;51482;47.014;7.652;2023-02-28T06:53:32;-0.40;99.90
64951;DHT22;51482;47.014;7.652;2023-02-28T06:55:58;0.30;99.90
64951;DHT22;51482;47.014;7.652;2023-02-28T06:58:24;-0.30;99.90
64951;DHT22;51482;47.014;7.652;2023-02-28T07:00:52;0.20;99.90
64951;DHT22;51482;47.014;7.652;2023-02-28T07:03:18;-0.10;99.90
64951;DHT22;51482;47.014;7.652;2023-02-28T07:05:44;0.30;99.90
64951;DHT22;51482;47.014;7.652;2023-02-28T07:08:10;0.40;99.90
64951;DHT22;51482;47.014;7.652;2023-02-28T07:10:39;0.40;99.90
64951;DHT22;51482;47.014;7.652;2023-02-28T07:13:06;0.40;99.90
64951;DHT22;51482;47.014;7.652;2023-02-28T07:15:32;-0.10;99.90
64951;DHT22;51482;47.014;7.652;2023-02-28T07:17:58;0.10;99.90
64951;DHT22;51482;47.014;7.652;2023-02-28T07:20:24;0.40;99.90
64951;DHT22;51482;47.014;7.652;2023-02-28T07:22:50;0.30;99.90
64951;DHT22;51482;47.014;7.652;2023-02-28T07:25:22;0.30;99.90
64951;DHT22;51482;47.014;7.652;2023-02-28T07:27:48;0.30;99.90
64951;DHT22;51482;47.014;7.652;2023-02-28T07:30:14;-0.10;99.90
64951;DHT22;51482;47.014;7.652;2023-02-28T07:32:39;0.50;99.90
64951;DHT22;51482;47.014;7.652;2023-02-28T07:35:05;0.40;99.90
64951;DHT22;51482;47.014;7.652;2023-02-28T07:37:31;-0.10;99.90
64951;DHT22;51482;47.014;7.652;2023-02-28T07:40:05;0.10;99.90
64951;DHT22;51482;47.014;7.652;2023-02-28T07:42:34;-0.10;99.90
64951;DHT22;51482;47.014;7.652;2023-02-28T07:44:59;-0.20;99.90
64951;DHT22;51482;47.014;7.652;2023-02-28T07:47:25;0.40;99.90
64951;DHT22;51482;47.014;7.652;2023-02-28T07:49:50;0.40;99.90
64951;DHT22;51482;47.014;7.652;2023-02-28T07:52:16;0.30;99.90
64951;DHT22;51482;47.014;7.652;2023-02-28T07:54:42;-0.20;99.90
64951;DHT22;51482;47.014;7.652;2023-02-28T07:57:07;-0.10;99.90
64951;DHT22;51482;47.014;7.652;2023-02-28T07:59:33;0.10;99.90
64951;DHT22;51482;47.014;7.652;2023-02-28T08:01:59;0.00;99.90
64951;DHT22;51482;47.014;7.652;2023-02-28T08:04:24;0.70;99.90
64951;DHT22;51482;47.014;7.652;2023-02-28T08:06:50;0.70;99.90
64951;DHT22;51482;47.014;7.652;2023-02-28T08:09:18;0.80;99.90
64951;DHT22;51482;47.014;7.652;2023-02-28T08:11:44;0.80;99.90
64951;DHT22;51482;47.014;7.652;2023-02-28T08:14:09;0.80;99.90
64951;DHT22;51482;47.014;7.652;2023-02-28T08:16:35;0.20;99.90
64951;DHT22;51482;47.014;7.652;2023-02-28T08:19:00;1.00;99.90
64951;DHT22;51482;47.014;7.652;2023-02-28T08:21:26;0.80;99.90
64951;DHT22;51482;47.014;7.652;2023-02-28T08:23:51;0.80;99.90
64951;DHT22;51482;47.014;7.652;2023-02-28T08:26:18;0.90;99.90
64951;DHT22;51482;47.014;7.652;2023-02-28T08:28:43;-0.20;99.90
64951;DHT22;51482;47.014;7.652;2023-02-28T08:31:12;1.20;99.90
64951;DHT22;51482;47.014;7.652;2023-02-28T08:33:39;1.10;99.90
64951;DHT22;51482;47.014;7.652;2023-02-28T08:36:06;0.50;99.90
64951;DHT22;51482;47.014;7.652;2023-02-28T08:38:31;0.70;99.90
64951;DHT22;51482;47.014;7.652;2023-02-28T08:40:59;1.20;99.90
64951;DHT22;51482;47.014;7.652;2023-02-28T08:43:25;1.40;99.90
64951;DHT22;51482;47.014;7.652;2023-02-28T08:45:52;1.30;99.90
64951;DHT22;51482;47.014;7.652;2023-02-28T08:48:17;1.30;99.90
64951;DHT22;51482;47.014;7.652;2023-02-28T08:50:43;0.80;99.90
64951;DHT22;51482;47.014;7.652;2023-02-28T08:53:08;0.90;99.90
64951;DHT22;51482;47.014;7.652;2023-02-28T08:55:34;1.50;99.90
64951;DHT22;51482;47.014;7.652;2023-02-28T08:57:59;1.80;99.90
64951;DHT22;51482;47.014;7.652;2023-02-28T09:00:26;1.80;99.90
64951;DHT22;51482;47.014;7.652;2023-02-28T09:02:52;1.30;99.90
64951;DHT22;51482;47.014;7.652;2023-02-28T09:05:17;1.90;99.90
64951;DHT22;51482;47.014;7.652;2023-02-28T09:07:43;1.80;99.90
64951;DHT22;51482;47.014;7.652;2023-02-28T09:10:11;1.80;99.90
64951;DHT22;51482;47.014;7.652;2023-02-28T09:12:37;1.80;99.90
64951;DHT22;51482;47.014;7.652;2023-02-28T09:15:03;1.30;99.90
64951;DHT22;51482;47.014;7.652;2023-02-28T09:17:29;1.30;99.90
64951;DHT22;51482;47.014;7.652;2023-02-28T09:19:54;1.80;99.90
64951;DHT22;51482;47.014;7.652;2023-02-28T09:22:20;1.30;99.90
64951;DHT22;51482;47.014;7.652;2023-02-28T09:24:45;1.70;99.90
64951;DHT22;51482;47.014;7.652;2023-02-28T09:27:11;2.00;99.90
64951;DHT22;51482;47.014;7.652;2023-02-28T09:29:36;1.80;99.90
64951;DHT22;51482;47.014;7.652;2023-02-28T09:32:02;1.90;99.90
64951;DHT22;51482;47.014;7.652;2023-02-28T09:34:30;1.70;99.90
64951;DHT22;51482;47.014;7.652;2023-02-28T09:36:56;2.10;99.90
64951;DHT22;51482;47.014;7.652;2023-02-28T09:39:22;1.80;99.90
64951;DHT22;51482;47.014;7.652;2023-02-28T09:41:51;1.80;99.90
64951;DHT22;51482;47.014;7.652;2023-02-28T09:44:45;1.20;99.90
64951;DHT22;51482;47.014;7.652;2023-02-28T09:49:57;1.30;99.90
64951;DHT22;51482;47.014;7.652;2023-02-28T09:52:29;2.00;99.90
64951;DHT22;51482;47.014;7.652;2023-02-28T09:55:34;1.80;99.90
64951;DHT22;51482;47.014;7.652;2023-02-28T09:58:02;2.00;99.90
64951;DHT22;51482;47.014;7.652;2023-02-28T10:00:33;1.70;99.90
64951;DHT22;51482;47.014;7.652;2023-02-28T10:08:33;2.00;99.90
64951;DHT22;51482;47.014;7.652;2023-02-28T10:11:02;2.30;99.90
64951;DHT22;51482;47.014;7.652;2023-02-28T10:13:52;1.70;99.90
64951;DHT22;51482;47.014;7.652;2023-02-28T10:18:59;2.60;99.90
64951;DHT22;51482;47.014;7.652;2023-02-28T10:21:38;2.00;99.90
64951;DHT22;51482;47.014;7.652;2023-02-28T10:24:16;1.80;99.90
64951;DHT22;51482;47.014;7.652;2023-02-28T10:26:45;2.40;99.90
64951;DHT22;51482;47.014;7.652;2023-02-28T10:29:12;2.50;99.90
64951;DHT22;51482;47.014;7.652;2023-02-28T10:31:39;2.50;99.90
64951;DHT22;51482;47.014;7.652;2023-02-28T10:34:04;2.50;99.90
64951;DHT22;51482;47.014;7.652;2023-02-28T10:36:31;2.10;99.90
64951;DHT22;51482;47.014;7.652;2023-02-28T10:38:57;2.60;99.90
64951;DHT22;51482;47.014;7.652;2023-02-28T10:41:32;2.70;99.90
64951;DHT22;51482;47.014;7.652;2023-02-28T10:44:22;2.80;99.90
64951;DHT22;51482;47.014;7.652;2023-02-28T10:46:49;2.60;99.90
64951;DHT22;51482;47.014;7.652;2023-02-28T10:49:20;3.10;99.90
64951;DHT22;51482;47.014;7.652;2023-02-28T10:51:49;2.80;99.90
64951;DHT22;51482;47.014;7.652;2023-02-28T10:54:24;2.70;99.90
64951;DHT22;51482;47.014;7.652;2023-02-28T10:59:35;2.20;99.90
64951;DHT22;51482;47.014;7.652;2023-02-28T11:02:01;1.80;99.90
64951;DHT22;51482;47.014;7.652;2023-02-28T11:07:18;2.80;99.90
64951;DHT22;51482;47.014;7.652;2023-02-28T11:09:49;2.80;99.90
64951;DHT22;51482;47.014;7.652;2023-02-28T11:12:31;2.60;99.90
64951;DHT22;51482;47.014;7.652;2023-02-28T11:15:01;2.20;99.90
64951;DHT22;51482;47.014;7.652;2023-02-28T11:17:29;2.60;99.90
64951;DHT22;51482;47.014;7.652;2023-02-28T11:20:02;2.40;99.90
64951;DHT22;51482;47.014;7.652;2023-02-28T11:22:37;2.30;99.90
64951;DHT22;51482;47.014;7.652;2023-02-28T11:25:10;3.00;99.90
64951;DHT22;51482;47.014;7.652;2023-02-28T11:28:01;2.90;99.90
64951;DHT22;51482;47.014;7.652;2023-02-28T11:33:01;2.40;99.90
64951;DHT22;51482;47.014;7.652;2023-02-28T11:35:41;2.30;99.90
64951;DHT22;51482;47.014;7.652;2023-02-28T11:38:12;2.60;99.90
64951;DHT22;51482;47.014;7.652;2023-02-28T11:46:23;2.60;99.90
64951;DHT22;51482;47.014;7.652;2023-02-28T11:51:28;1.70;99.90
64951;DHT22;51482;47.014;7.652;2023-02-28T11:54:28;2.30;99.90
64951;DHT22;51482;47.014;7.652;2023-02-28T12:00:08;3.10;99.90
64951;DHT22;51482;47.014;7.652;2023-02-28T12:05:34;2.60;99.90
64951;DHT22;51482;47.014;7.652;2023-02-28T12:11:11;2.70;99.90
64951;DHT22;51482;47.014;7.652;2023-02-28T12:19:19;2.80;99.90
64951;DHT22;51482;47.014;7.652;2023-02-28T12:22:02;3.10;99.90
64951;DHT22;51482;47.014;7.652;2023-02-28T12:27:14;3.00;99.90
64951;DHT22;51482;47.014;7.652;2023-02-28T12:29:52;3.50;99.90
64951;DHT22;51482;47.014;7.652;2023-02-28T12:32:30;3.40;99.90
64951;DHT22;51482;47.014;7.652;2023-02-28T12:35:02;3.60;99.90
64951;DHT22;51482;47.014;7.652;2023-02-28T12:40:17;3.00;99.90
64951;DHT22;51482;47.014;7.652;2023-02-28T12:42:58;2.80;99.90
64951;DHT22;51482;47.014;7.652;2023-02-28T12:46:07;3.10;99.90
64951;DHT22;51482;47.014;7.652;2023-02-28T12:49:10;3.60;99.90
64951;DHT22;51482;47.014;7.652;2023-02-28T12:51:38;3.50;99.90
64951;DHT22;51482;47.014;7.652;2023-02-28T13:00:28;3.40;99.90
64951;DHT22;51482;47.014;7.652;2023-02-28T13:11:52;3.30;99.90
64951;DHT22;51482;47.014;7.652;2023-02-28T13:22:05;3.80;99.90
64951;DHT22;51482;47.014;7.652;2023-02-28T13:24:45;3.20;99.90
64951;DHT22;51482;47.014;7.652;2023-02-28T13:29:42;3.30;99.90
64951;DHT22;51482;47.014;7.652;2023-02-28T13:39:58;3.10;99.90
64951;DHT22;51482;47.014;7.652;2023-02-28T13:42:47;3.10;99.90
64951;DHT22;51482;47.014;7.652;2023-02-28T13:45:24;3.40;99.90
64951;DHT22;51482;47.014;7.652;2023-02-28T13:47:59;2.90;99.90
64951;DHT22;51482;47.014;7.652;2023-02-28T13:53:16;3.50;99.90
64951;DHT22;51482;47.014;7.652;2023-02-28T13:56:07;3.00;99.90
64951;DHT22;51482;47.014;7.652;2023-02-28T13:58:43;3.10;99.90
64951;DHT22;51482;47.014;7.652;2023-02-28T14:07:48;2.80;99.90
64951;DHT22;51482;47.014;7.652;2023-02-28T14:10:25;2.70;99.90
64951;DHT22;51482;47.014;7.652;2023-02-28T14:15:38;2.50;99.90
64951;DHT22;51482;47.014;7.652;2023-02-28T14:18:28;2.40;99.90
64951;DHT22;51482;47.014;7.652;2023-02-28T14:23:50;2.50;99.90
64951;DHT22;51482;47.014;7.652;2023-02-28T14:29:36;2.40;99.90
64951;DHT22;51482;47.014;7.652;2023-02-28T14:32:21;3.00;99.90
64951;DHT22;51482;47.014;7.652;2023-02-28T14:35:03;2.50;99.90
64951;DHT22;51482;47.014;7.652;2023-02-28T14:37:38;2.60;99.90
64951;DHT22;51482;47.014;7.652;2023-02-28T14:40:14;3.10;99.90
64951;DHT22;51482;47.014;7.652;2023-02-28T14:42:54;2.40;99.90
64951;DHT22;51482;47.014;7.652;2023-02-28T14:45:23;2.90;99.90
64951;DHT22;51482;47.014;7.652;2023-02-28T14:47:50;2.20;99.90
64951;DHT22;51482;47.014;7.652;2023-02-28T14:50:22;2.00;99.90
64951;DHT22;51482;47.014;7.652;2023-02-28T14:52:52;2.10;99.90
64951;DHT22;51482;47.014;7.652;2023-02-28T14:55:19;2.60;99.90
64951;DHT22;51482;47.014;7.652;2023-02-28T14:57:57;1.60;99.90
64951;DHT22;51482;47.014;7.652;2023-02-28T15:00:25;1.90;99.90
64951;DHT22;51482;47.014;7.652;2023-02-28T15:02:51;2.00;99.90
64951;DHT22;51482;47.014;7.652;2023-02-28T15:08:15;2.00;99.90
64951;DHT22;51482;47.014;7.652;2023-02-28T15:10:44;1.60;99.90
64951;DHT22;51482;47.014;7.652;2023-02-28T15:13:13;2.70;99.90
64951;DHT22;51482;47.014;7.652;2023-02-28T15:18:42;2.40;99.90
64951;DHT22;51482;47.014;7.652;2023-02-28T15:21:32;1.80;99.90
64951;DHT22;51482;47.014;7.652;2023-02-28T15:24:19;1.60;99.90
64951;DHT22;51482;47.014;7.652;2023-02-28T15:26:53;1.60;99.90
64951;DHT22;51482;47.014;7.652;2023-02-28T15:29:22;1.90;99.90
64951;DHT22;51482;47.014;7.652;2023-02-28T15:40:42;1.20;99.90
64951;DHT22;51482;47.014;7.652;2023-02-28T15:43:15;1.30;99.90
64951;DHT22;51482;47.014;7.652;2023-02-28T15:45:52;1.30;99.90
64951;DHT22;51482;47.014;7.652;2023-02-28T15:48:27;1.50;99.90
64951;DHT22;51482;47.014;7.652;2023-02-28T15:51:04;1.30;99.90
64951;DHT22;51482;47.014;7.652;2023-02-28T15:53:35;1.30;99.90
64951;DHT22;51482;47.014;7.652;2023-02-28T15:56:04;2.10;99.90
64951;DHT22;51482;47.014;7.652;2023-02-28T15:58:32;1.20;99.90
64951;DHT22;51482;47.014;7.652;2023-02-28T16:01:25;1.40;99.90
64951;DHT22;51482;47.014;7.652;2023-02-28T16:03:54;1.10;99.90
64951;DHT22;51482;47.014;7.652;2023-02-28T16:06:40;1.20;99.90
64951;DHT22;51482;47.014;7.652;2023-02-28T16:09:14;1.30;99.90
64951;DHT22;51482;47.014;7.652;2023-02-28T16:11:48;1.80;99.90
64951;DHT22;51482;47.014;7.652;2023-02-28T16:14:25;1.00;99.90
64951;DHT22;51482;47.014;7.652;2023-02-28T16:16:55;1.70;99.90
64951;DHT22;51482;47.014;7.652;2023-02-28T16:19:22;1.60;99.90
64951;DHT22;51482;47.014;7.652;2023-02-28T16:21:51;1.20;99.90
64951;DHT22;51482;47.014;7.652;2023-02-28T16:24:16;1.50;99.90
64951;DHT22;51482;47.014;7.652;2023-02-28T16:26:46;1.30;99.90
64951;DHT22;51482;47.014;7.652;2023-02-28T16:29:29;0.70;99.90
64951;DHT22;51482;47.014;7.652;2023-02-28T16:31:59;0.40;99.90
64951;DHT22;51482;47.014;7.652;2023-02-28T16:34:25;0.90;99.90
64951;DHT22;51482;47.014;7.652;2023-02-28T16:37:00;1.50;99.90
64951;DHT22;51482;47.014;7.652;2023-02-28T16:39:28;0.70;99.90
64951;DHT22;51482;47.014;7.652;2023-02-28T16:41:54;0.80;99.90
64951;DHT22;51482;47.014;7.652;2023-02-28T16:44:34;0.80;99.90
64951;DHT22;51482;47.014;7.652;2023-02-28T16:47:01;1.30;99.90
64951;DHT22;51482;47.014;7.652;2023-02-28T16:49:27;1.30;99.90
64951;DHT22;51482;47.014;7.652;2023-02-28T16:51:53;1.50;99.90
64951;DHT22;51482;47.014;7.652;2023-02-28T16:54:19;0.50;99.90
64951;DHT22;51482;47.014;7.652;2023-02-28T16:56:46;0.60;99.90
64951;DHT22;51482;47.014;7.652;2023-02-28T16:59:13;0.10;99.90
64951;DHT22;51482;47.014;7.652;2023-02-28T17:01:40;0.40;99.90
64951;DHT22;51482;47.014;7.652;2023-02-28T17:04:06;1.10;99.90
64951;DHT22;51482;47.014;7.652;2023-02-28T17:06:31;1.10;99.90
64951;DHT22;51482;47.014;7.652;2023-02-28T17:08:58;1.40;99.90
64951;DHT22;51482;47.014;7.652;2023-02-28T17:11:25;1.20;99.90
64951;DHT22;51482;47.014;7.652;2023-02-28T17:13:51;1.40;99.90
64951;DHT22;51482;47.014;7.652;2023-02-28T17:16:29;0.90;99.90
64951;DHT22;51482;47.014;7.652;2023-02-28T17:18:58;0.70;99.90
64951;DHT22;51482;47.014;7.652;2023-02-28T17:21:24;0.70;99.90
64951;DHT22;51482;47.014;7.652;2023-02-28T17:23:50;1.20;99.90
64951;DHT22;51482;47.014;7.652;2023-02-28T17:26:18;1.30;99.90
64951;DHT22;51482;47.014;7.652;2023-02-28T17:28:46;0.80;99.90
64951;DHT22;51482;47.014;7.652;2023-02-28T17:31:11;1.20;99.90
64951;DHT22;51482;47.014;7.652;2023-02-28T17:33:37;0.80;99.90
64951;DHT22;51482;47.014;7.652;2023-02-28T17:36:03;0.70;99.90
64951;DHT22;51482;47.014;7.652;2023-02-28T17:38:29;0.50;99.90
64951;DHT22;51482;47.014;7.652;2023-02-28T17:40:54;0.70;99.90
64951;DHT22;51482;47.014;7.652;2023-02-28T17:43:31;0.10;99.90
64951;DHT22;51482;47.014;7.652;2023-02-28T17:45:56;1.10;99.90
64951;DHT22;51482;47.014;7.652;2023-02-28T17:48:23;0.90;99.90
64951;DHT22;51482;47.014;7.652;2023-02-28T17:50:49;0.80;99.90
64951;DHT22;51482;47.014;7.652;2023-02-28T17:53:15;1.00;99.90
64951;DHT22;51482;47.014;7.652;2023-02-28T17:55:40;0.40;99.90
64951;DHT22;51482;47.014;7.652;2023-02-28T17:58:07;0.60;99.90
64951;DHT22;51482;47.014;7.652;2023-02-28T18:00:34;1.20;99.90
64951;DHT22;51482;47.014;7.652;2023-02-28T18:03:00;1.20;99.90
64951;DHT22;51482;47.014;7.652;2023-02-28T18:05:25;0.50;99.90
64951;DHT22;51482;47.014;7.652;2023-02-28T18:07:51;1.30;99.90
64951;DHT22;51482;47.014;7.652;2023-02-28T18:10:20;0.80;99.90
64951;DHT22;51482;47.014;7.652;2023-02-28T18:12:50;0.60;99.90
64951;DHT22;51482;47.014;7.652;2023-02-28T18:15:18;1.00;99.90
64951;DHT22;51482;47.014;7.652;2023-02-28T18:17:46;0.70;99.90